Time;durP1;ratioP1;P1;durP2;ratioP2;P2;SDS_P1;SDS_P2;PMS_P1;PMS_P2;Temp;Humidity;BMP_temperature;BMP_pressure;BME280_temperature;BME280_humidity;BME280_pressure;Samples;Min_cycle;Max_cycle;Signal;HPM_P1;HPM_P2
2021/09/25 00:02:26;;;;;;;1.67;0.50;;;17.60;99.90;;;;;;20546371;28;20697;-81
2021/09/25 00:12:28;;;;;;;5.15;1.52;;;17.60;99.90;;;;;;20558116;28;20137;-81
2021/09/25 00:22:29;;;;;;;4.57;0.80;;;17.50;99.90;;;;;;20549125;28;20053;-81
2021/09/25 00:32:32;;;;;;;5.63;0.90;;;17.50;99.90;;;;;;20530987;28;20150;-81
2021/09/25 00:42:33;;;;;;;2.80;1.05;;;17.30;99.90;;;;;;20533236;28;20153;-80
2021/09/25 00:52:34;;;;;;;5.68;0.85;;;17.30;99.90;;;;;;20534329;28;20051;-80
2021/09/25 01:02:36;;;;;;;3.50;0.80;;;17.30;99.90;;;;;;20513108;28;20050;-81
2021/09/25 01:12:37;;;;;;;3.00;1.02;;;17.20;99.90;;;;;;20515778;28;20048;-81
2021/09/25 01:22:38;;;;;;;2.28;0.95;;;17.20;99.90;;;;;;20520222;28;20061;-80
2021/09/25 01:32:40;;;;;;;4.07;1.02;;;17.10;99.90;;;;;;20526483;28;20465;-80
2021/09/25 01:42:41;;;;;;;4.80;1.38;;;17.00;99.90;;;;;;20534026;28;20062;-80
2021/09/25 01:52:43;;;;;;;2.30;1.00;;;17.00;99.90;;;;;;20564124;28;20077;-80
2021/09/25 02:02:44;;;;;;;4.25;0.75;;;17.00;99.90;;;;;;20572428;28;20050;-80
2021/09/25 02:12:45;;;;;;;3.15;1.45;;;16.90;99.90;;;;;;20538540;28;20030;-81
2021/09/25 02:22:46;;;;;;;2.80;1.45;;;16.80;99.90;;;;;;20532003;28;20079;-80
2021/09/25 02:32:49;;;;;;;5.00;1.70;;;16.70;99.90;;;;;;20592865;28;20054;-80
2021/09/25 02:42:51;;;;;;;4.60;1.50;;;16.70;99.90;;;;;;20592544;28;20524;-80
2021/09/25 02:52:52;;;;;;;3.97;1.23;;;16.70;99.90;;;;;;20620153;28;20063;-80
2021/09/25 03:02:53;;;;;;;7.50;2.17;;;16.50;99.90;;;;;;20537538;28;20393;-80
2021/09/25 03:12:54;;;;;;;5.43;1.80;;;16.50;99.90;;;;;;20567521;28;20056;-80
2021/09/25 03:22:55;;;;;;;4.97;1.50;;;16.50;99.90;;;;;;20516224;28;20046;-81
2021/09/25 03:32:56;;;;;;;4.45;1.58;;;16.40;99.90;;;;;;20540784;28;20051;-81
2021/09/25 03:42:57;;;;;;;5.95;2.40;;;16.40;99.90;;;;;;20516485;28;20147;-81
2021/09/25 03:52:59;;;;;;;9.88;1.75;;;16.40;99.90;;;;;;20496446;28;20547;-80
2021/09/25 04:03:00;;;;;;;4.25;1.90;;;16.40;99.90;;;;;;20527907;28;20058;-80
2021/09/25 04:13:01;;;;;;;9.75;2.08;;;16.30;99.90;;;;;;20510472;28;20086;-80
2021/09/25 04:23:03;;;;;;;7.53;3.22;;;16.30;99.90;;;;;;20518826;28;20050;-81
2021/09/25 04:33:06;;;;;;;8.63;2.90;;;16.30;99.90;;;;;;20524976;28;20051;-80
2021/09/25 04:43:08;;;;;;;6.68;2.35;;;16.30;99.90;;;;;;20580517;28;20094;-80
2021/09/25 04:53:12;;;;;;;11.00;2.75;;;16.40;99.90;;;;;;20597083;28;22267;-80
2021/09/25 05:03:13;;;;;;;8.15;2.67;;;16.30;99.90;;;;;;20567422;28;20027;-80
2021/09/25 05:13:14;;;;;;;6.32;2.40;;;16.30;99.90;;;;;;20573417;28;20054;-81
2021/09/25 05:23:16;;;;;;;7.40;2.45;;;16.30;99.90;;;;;;20563877;28;20053;-81
2021/09/25 05:33:18;;;;;;;9.95;2.70;;;16.30;99.90;;;;;;20526164;28;20054;-81
2021/09/25 05:43:19;;;;;;;9.02;2.28;;;16.30;99.90;;;;;;20578016;28;20050;-81
2021/09/25 05:53:20;;;;;;;7.15;2.67;;;16.30;99.90;;;;;;20527753;28;20062;-81
2021/09/25 06:03:21;;;;;;;11.45;2.60;;;16.30;99.90;;;;;;20528116;28;20089;-81
2021/09/25 06:13:22;;;;;;;10.57;3.13;;;16.40;99.90;;;;;;20579925;28;20126;-80
2021/09/25 06:23:23;;;;;;;9.80;3.45;;;16.40;99.90;;;;;;20573418;28;20137;-81
2021/09/25 06:33:24;;;;;;;8.48;2.97;;;16.40;99.90;;;;;;20563610;28;20042;-81
2021/09/25 06:43:25;;;;;;;6.75;3.28;;;16.50;99.90;;;;;;20584197;28;20748;-82
2021/09/25 06:53:26;;;;;;;8.23;2.95;;;16.70;99.90;;;;;;20548642;28;20047;-83
2021/09/25 07:03:27;;;;;;;12.07;3.42;;;16.70;99.90;;;;;;20566457;28;21173;-81
2021/09/25 07:13:28;;;;;;;11.05;3.55;;;16.80;99.90;;;;;;20564030;28;20064;-81
2021/09/25 07:23:30;;;;;;;9.65;3.42;;;16.90;99.90;;;;;;20562162;28;20079;-81
2021/09/25 07:33:31;;;;;;;11.00;3.40;;;17.00;99.90;;;;;;20585364;28;20057;-81
2021/09/25 07:43:32;;;;;;;11.82;4.85;;;17.00;99.90;;;;;;20545059;28;20048;-81
2021/09/25 07:53:33;;;;;;;8.55;3.63;;;17.10;99.90;;;;;;20521265;28;20026;-81
2021/09/25 08:13:45;;;;;;;16.67;5.13;;;17.30;99.90;;;;;;13054087;23;20054;-79
2021/09/25 08:23:47;;;;;;;10.60;4.43;;;17.40;99.90;;;;;;20494884;28;20043;-80
2021/09/25 08:33:48;;;;;;;20.60;4.20;;;17.60;99.90;;;;;;20494993;28;22319;-79
2021/09/25 08:43:51;;;;;;;13.10;5.40;;;17.70;99.90;;;;;;20417450;28;20907;-79
2021/09/25 08:53:52;;;;;;;12.90;5.35;;;17.80;99.90;;;;;;20463265;28;20050;-79
2021/09/25 09:03:53;;;;;;;15.25;5.07;;;17.90;99.90;;;;;;20378878;28;20065;-79
2021/09/25 09:13:59;;;;;;;20.35;6.35;;;18.00;99.90;;;;;;20383541;28;20059;-80
2021/09/25 09:24:07;;;;;;;20.65;5.90;;;18.10;99.90;;;;;;20409112;28;20052;-79
2021/09/25 09:34:08;;;;;;;16.67;6.50;;;18.10;99.90;;;;;;20464954;28;20079;-82
2021/09/25 09:44:14;;;;;;;18.08;6.30;;;18.00;99.90;;;;;;20425315;28;20563;-79
2021/09/25 09:54:17;;;;;;;21.50;6.93;;;18.00;99.90;;;;;;20440520;28;20054;-79
2021/09/25 10:04:19;;;;;;;18.27;6.90;;;18.00;99.90;;;;;;20453040;28;20104;-78
2021/09/25 10:14:26;;;;;;;19.90;7.00;;;18.10;99.90;;;;;;20465914;28;20067;-80
2021/09/25 10:24:42;;;;;;;20.83;7.15;;;18.20;99.90;;;;;;20563751;28;20038;-80
2021/09/25 10:35:10;;;;;;;24.55;7.22;;;18.40;99.90;;;;;;20502370;28;20061;-80
2021/09/25 10:45:24;;;;;;;20.48;6.55;;;18.60;99.90;;;;;;20557686;28;20498;-79
2021/09/25 10:55:28;;;;;;;14.85;6.47;;;18.80;99.90;;;;;;20561100;28;22075;-79
2021/09/25 11:06:01;;;;;;;16.67;7.45;;;18.90;99.90;;;;;;20517814;28;20062;-80
2021/09/25 11:16:05;;;;;;;15.90;6.43;;;18.90;99.90;;;;;;20527493;28;20074;-80
2021/09/25 11:26:07;;;;;;;16.70;6.90;;;19.10;99.90;;;;;;20453550;28;20040;-80
2021/09/25 11:36:10;;;;;;;21.40;7.90;;;19.40;99.90;;;;;;20459413;28;20066;-80
2021/09/25 11:46:14;;;;;;;15.80;7.72;;;19.60;99.90;;;;;;20484725;28;20042;-80
2021/09/25 11:56:28;;;;;;;17.33;6.63;;;19.70;99.90;;;;;;20543598;28;20062;-80
2021/09/25 12:06:29;;;;;;;19.02;8.27;;;19.90;99.90;;;;;;20459459;28;20031;-82
2021/09/25 12:16:30;;;;;;;12.55;5.72;;;19.80;99.90;;;;;;20446411;28;20051;-79
2021/09/25 12:26:34;;;;;;;20.05;8.07;;;19.60;99.90;;;;;;20490949;28;20040;-79
2021/09/25 12:36:39;;;;;;;20.90;8.45;;;19.70;99.90;;;;;;20495376;28;20173;-79
2021/09/25 12:46:47;;;;;;;20.58;7.43;;;19.80;99.90;;;;;;20436615;28;20060;-79
2021/09/25 12:56:54;;;;;;;22.90;7.70;;;19.80;99.90;;;;;;20489905;28;20414;-79
2021/09/25 13:06:58;;;;;;;21.88;7.18;;;20.00;99.90;;;;;;20457054;28;20045;-79
2021/09/25 13:16:59;;;;;;;14.60;6.70;;;20.00;99.90;;;;;;20492547;28;20335;-79
2021/09/25 13:27:00;;;;;;;19.70;6.43;;;20.20;99.90;;;;;;20478256;28;20138;-79
2021/09/25 13:37:02;;;;;;;16.50;7.35;;;20.40;99.90;;;;;;20461979;28;20051;-79
2021/09/25 13:47:04;;;;;;;16.10;5.05;;;20.50;99.90;;;;;;20489299;28;20043;-79
2021/09/25 13:57:06;;;;;;;12.77;5.65;;;20.60;99.90;;;;;;20530547;28;20278;-79
2021/09/25 14:07:07;;;;;;;9.85;4.90;;;20.50;99.90;;;;;;20552407;28;20063;-79
2021/09/25 14:17:08;;;;;;;11.25;5.05;;;20.70;99.90;;;;;;20489608;28;20054;-78
2021/09/25 14:27:10;;;;;;;15.50;5.82;;;20.80;99.90;;;;;;20474688;28;20069;-78
2021/09/25 14:37:11;;;;;;;12.13;4.20;;;20.90;99.90;;;;;;20519979;28;20059;-78
2021/09/25 14:47:12;;;;;;;16.15;6.38;;;21.90;99.90;;;;;;20483728;28;20050;-79
2021/09/25 14:57:13;;;;;;;13.95;6.78;;;22.20;99.90;;;;;;20519813;28;20147;-77
2021/09/25 15:07:14;;;;;;;15.25;5.65;;;22.20;99.90;;;;;;20488356;28;20047;-77
2021/09/25 15:17:15;;;;;;;13.25;5.75;;;22.00;99.90;;;;;;20487667;28;20043;-77
2021/09/25 15:27:17;;;;;;;14.68;7.25;;;22.00;99.90;;;;;;20504381;28;20542;-77
2021/09/25 15:37:18;;;;;;;19.30;7.07;;;21.80;99.90;;;;;;20520289;28;20066;-80
2021/09/25 15:47:19;;;;;;;15.00;7.22;;;21.80;99.90;;;;;;20508268;28;20071;-79
2021/09/25 15:57:20;;;;;;;17.83;7.40;;;21.60;99.90;;;;;;20515752;28;20602;-78
2021/09/25 16:07:21;;;;;;;14.93;5.63;;;21.40;99.90;;;;;;20491225;28;20050;-77
2021/09/25 16:17:22;;;;;;;11.48;5.35;;;21.30;99.90;;;;;;20544887;28;20077;-78
2021/09/25 16:27:25;;;;;;;10.80;4.85;;;21.10;99.90;;;;;;20531451;28;20054;-78
2021/09/25 16:37:26;;;;;;;11.00;5.55;;;21.00;99.90;;;;;;20524591;28;20598;-78
2021/09/25 16:47:27;;;;;;;13.88;5.50;;;20.80;99.90;;;;;;20517230;28;20118;-78
2021/09/25 16:57:28;;;;;;;9.68;4.93;;;20.70;99.90;;;;;;20500773;28;20047;-78
2021/09/25 17:07:31;;;;;;;11.50;4.35;;;20.60;99.90;;;;;;20517191;28;20064;-78
2021/09/25 17:17:35;;;;;;;12.68;5.57;;;20.50;99.90;;;;;;20503409;28;20050;-78
2021/09/25 17:27:36;;;;;;;9.95;3.42;;;20.30;99.90;;;;;;20486829;28;20051;-78
2021/09/25 17:37:39;;;;;;;11.38;4.40;;;20.00;99.90;;;;;;20497934;28;20138;-78
2021/09/25 17:47:42;;;;;;;7.63;2.80;;;19.90;99.90;;;;;;20466997;28;20150;-78
2021/09/25 17:57:43;;;;;;;7.25;3.03;;;19.60;99.90;;;;;;20521259;28;20649;-78
2021/09/25 18:07:44;;;;;;;7.85;2.92;;;19.50;99.90;;;;;;20524727;28;20060;-78
2021/09/25 18:17:46;;;;;;;8.25;2.92;;;19.50;99.90;;;;;;20487325;28;20066;-78
2021/09/25 18:27:48;;;;;;;8.95;3.50;;;19.40;99.90;;;;;;20495458;28;20063;-78
2021/09/25 18:37:50;;;;;;;14.52;5.22;;;19.40;99.90;;;;;;20522425;28;20052;-78
2021/09/25 18:47:53;;;;;;;6.85;3.67;;;19.40;99.90;;;;;;20472679;28;20067;-79
2021/09/25 18:57:54;;;;;;;16.02;6.03;;;19.30;99.90;;;;;;20499903;28;20047;-79
2021/09/25 19:07:55;;;;;;;7.45;3.17;;;19.20;99.90;;;;;;20515266;28;20061;-78
2021/09/25 19:17:57;;;;;;;8.88;3.53;;;19.00;99.90;;;;;;20535824;28;20058;-79
2021/09/25 19:27:58;;;;;;;6.95;3.40;;;18.90;99.90;;;;;;20530249;28;20046;-79
2021/09/25 19:38:03;;;;;;;11.10;4.35;;;18.70;99.90;;;;;;20590658;28;20038;-79
2021/09/25 19:48:05;;;;;;;9.07;3.67;;;18.50;99.90;;;;;;20500393;28;20058;-79
2021/09/25 19:58:06;;;;;;;8.02;2.97;;;18.30;99.90;;;;;;20452171;28;20051;-79
2021/09/25 20:08:09;;;;;;;6.60;3.30;;;18.10;99.90;;;;;;20576716;28;20499;-79
2021/09/25 20:18:13;;;;;;;5.75;2.70;;;17.90;99.90;;;;;;20549441;28;20050;-79
2021/09/25 20:28:14;;;;;;;10.40;4.07;;;17.70;99.90;;;;;;20523011;28;20046;-79
2021/09/25 20:38:15;;;;;;;6.47;3.15;;;17.50;99.90;;;;;;20526309;28;20043;-79
2021/09/25 20:48:17;;;;;;;7.45;3.58;;;17.40;99.90;;;;;;20550428;28;20062;-79
2021/09/25 20:58:18;;;;;;;10.18;4.47;;;17.30;99.90;;;;;;20538179;28;20505;-79
2021/09/25 21:08:19;;;;;;;10.02;3.80;;;17.10;99.90;;;;;;20570418;28;20060;-79
2021/09/25 21:18:20;;;;;;;15.50;4.38;;;17.10;99.90;;;;;;20547686;28;20065;-79
2021/09/25 21:28:23;;;;;;;10.73;4.38;;;16.90;99.90;;;;;;20502471;28;20054;-79
2021/09/25 21:38:25;;;;;;;9.38;4.03;;;16.80;99.90;;;;;;20502160;28;20133;-79
2021/09/25 21:48:27;;;;;;;8.20;4.13;;;16.70;99.90;;;;;;20532717;28;20052;-79
2021/09/25 21:58:28;;;;;;;9.35;3.97;;;16.60;99.90;;;;;;20519476;28;20499;-79
2021/09/25 22:08:32;;;;;;;9.63;4.28;;;16.50;99.90;;;;;;20510863;28;20455;-79
2021/09/25 22:18:35;;;;;;;10.30;4.18;;;16.40;99.90;;;;;;20522820;28;20257;-79
2021/09/25 22:28:38;;;;;;;8.43;3.88;;;16.40;99.90;;;;;;20547975;28;20146;-79
2021/09/25 22:38:41;;;;;;;9.90;4.60;;;16.30;99.90;;;;;;20558535;28;20158;-79
2021/09/25 22:48:43;;;;;;;10.00;4.47;;;16.20;99.90;;;;;;20531610;28;20126;-79
2021/09/25 22:58:44;;;;;;;11.02;4.30;;;16.10;99.90;;;;;;20542274;28;20055;-79
2021/09/25 23:08:46;;;;;;;10.02;5.07;;;16.00;99.90;;;;;;20489988;28;20064;-79
2021/09/25 23:18:48;;;;;;;9.27;4.07;;;15.90;99.90;;;;;;20496734;28;20777;-79
2021/09/25 23:28:49;;;;;;;9.00;4.25;;;15.80;99.90;;;;;;20534837;28;20051;-79
2021/09/25 23:38:50;;;;;;;9.93;4.63;;;15.80;99.90;;;;;;20517856;28;20393;-79
2021/09/25 23:48:51;;;;;;;16.98;4.75;;;15.80;99.90;;;;;;20546881;28;20058;-79
2021/09/25 23:58:55;;;;;;;9.73;4.05;;;15.80;99.90;;;;;;20531556;28;20437;-80
